sensor_id;sensor_type;location;lat;lon;timestamp;temperature;humidity
40253;DHT22;25972;51.854;4.534;2022-12-10T00:01:50;0.20;99.90
40253;DHT22;25972;51.854;4.534;2022-12-10T00:04:20;0.50;99.90
40253;DHT22;25972;51.854;4.534;2022-12-10T00:06:49;0.00;99.90
40253;DHT22;25972;51.854;4.534;2022-12-10T00:09:18;0.50;99.90
40253;DHT22;25972;51.854;4.534;2022-12-10T00:11:47;0.40;99.90
40253;DHT22;25972;51.854;4.534;2022-12-10T00:14:23;0.20;99.90
40253;DHT22;25972;51.854;4.534;2022-12-10T00:16:50;0.10;99.90
40253;DHT22;25972;51.854;4.534;2022-12-10T00:19:25;0.20;99.90
40253;DHT22;25972;51.854;4.534;2022-12-10T00:21:58;0.00;99.90
40253;DHT22;25972;51.854;4.534;2022-12-10T00:24:24;0.40;99.90
40253;DHT22;25972;51.854;4.534;2022-12-10T00:26:51;0.00;99.90
40253;DHT22;25972;51.854;4.534;2022-12-10T00:29:17;0.50;99.90
40253;DHT22;25972;51.854;4.534;2022-12-10T00:31:44;0.50;99.90
40253;DHT22;25972;51.854;4.534;2022-12-10T00:34:11;0.50;99.90
40253;DHT22;25972;51.854;4.534;2022-12-10T00:36:43;0.50;99.90
40253;DHT22;25972;51.854;4.534;2022-12-10T00:39:20;0.50;99.90
40253;DHT22;25972;51.854;4.534;2022-12-10T00:41:47;0.20;99.90
40253;DHT22;25972;51.854;4.534;2022-12-10T00:44:16;0.30;99.90
40253;DHT22;25972;51.854;4.534;2022-12-10T00:46:46;0.50;99.90
40253;DHT22;25972;51.854;4.534;2022-12-10T00:49:12;0.40;99.90
40253;DHT22;25972;51.854;4.534;2022-12-10T00:51:39;0.20;99.90
40253;DHT22;25972;51.854;4.534;2022-12-10T00:54:06;0.20;99.90
40253;DHT22;25972;51.854;4.534;2022-12-10T00:56:35;0.40;99.90
40253;DHT22;25972;51.854;4.534;2022-12-10T00:59:04;0.40;99.90
40253;DHT22;25972;51.854;4.534;2022-12-10T01:01:33;-0.10;99.90
40253;DHT22;25972;51.854;4.534;2022-12-10T01:04:07;-0.10;99.90
40253;DHT22;25972;51.854;4.534;2022-12-10T01:06:39;0.10;99.90
40253;DHT22;25972;51.854;4.534;2022-12-10T01:09:09;-0.10;99.90
40253;DHT22;25972;51.854;4.534;2022-12-10T01:11:38;0.20;99.90
40253;DHT22;25972;51.854;4.534;2022-12-10T01:14:06;0.30;99.90
40253;DHT22;25972;51.854;4.534;2022-12-10T01:16:33;0.20;99.90
40253;DHT22;25972;51.854;4.534;2022-12-10T01:19:08;-0.10;99.90
40253;DHT22;25972;51.854;4.534;2022-12-10T01:21:34;0.40;99.90
40253;DHT22;25972;51.854;4.534;2022-12-10T01:24:02;0.10;99.90
40253;DHT22;25972;51.854;4.534;2022-12-10T01:26:32;0.40;99.90
40253;DHT22;25972;51.854;4.534;2022-12-10T01:29:05;0.20;99.90
40253;DHT22;25972;51.854;4.534;2022-12-10T01:31:38;0.40;99.90
40253;DHT22;25972;51.854;4.534;2022-12-10T01:34:06;0.40;99.90
40253;DHT22;25972;51.854;4.534;2022-12-10T01:36:36;0.40;99.90
40253;DHT22;25972;51.854;4.534;2022-12-10T01:39:05;0.00;99.90
40253;DHT22;25972;51.854;4.534;2022-12-10T01:41:51;0.40;99.90
40253;DHT22;25972;51.854;4.534;2022-12-10T01:46:49;0.10;99.90
40253;DHT22;25972;51.854;4.534;2022-12-10T01:49:21;0.40;99.90
40253;DHT22;25972;51.854;4.534;2022-12-10T01:51:51;-0.10;99.90
40253;DHT22;25972;51.854;4.534;2022-12-10T01:55:06;-0.10;99.90
40253;DHT22;25972;51.854;4.534;2022-12-10T01:57:25;0.40;99.90
40253;DHT22;25972;51.854;4.534;2022-12-10T01:59:55;0.40;99.90
40253;DHT22;25972;51.854;4.534;2022-12-10T02:13:12;0.30;99.90
40253;DHT22;25972;51.854;4.534;2022-12-10T02:15:52;-0.20;99.90
40253;DHT22;25972;51.854;4.534;2022-12-10T02:18:35;-0.20;99.90
40253;DHT22;25972;51.854;4.534;2022-12-10T02:21:30;0.20;99.90
40253;DHT22;25972;51.854;4.534;2022-12-10T02:24:02;0.30;99.90
40253;DHT22;25972;51.854;4.534;2022-12-10T02:26:45;0.10;99.90
40253;DHT22;25972;51.854;4.534;2022-12-10T02:29:27;0.30;99.90
40253;DHT22;25972;51.854;4.534;2022-12-10T02:32:09;0.10;99.90
40253;DHT22;25972;51.854;4.534;2022-12-10T02:34:50;0.10;99.90
40253;DHT22;25972;51.854;4.534;2022-12-10T02:37:30;0.00;99.90
40253;DHT22;25972;51.854;4.534;2022-12-10T02:40:06;0.40;99.90
40253;DHT22;25972;51.854;4.534;2022-12-10T02:42:42;0.40;99.90
40253;DHT22;25972;51.854;4.534;2022-12-10T02:45:10;0.40;99.90
40253;DHT22;25972;51.854;4.534;2022-12-10T02:47:38;0.30;99.90
40253;DHT22;25972;51.854;4.534;2022-12-10T02:50:06;0.00;99.90
40253;DHT22;25972;51.854;4.534;2022-12-10T02:52:33;0.30;99.90
40253;DHT22;25972;51.854;4.534;2022-12-10T02:55:03;0.00;99.90
40253;DHT22;25972;51.854;4.534;2022-12-10T03:00:53;0.00;99.90
40253;DHT22;25972;51.854;4.534;2022-12-10T03:03:52;0.30;99.90
40253;DHT22;25972;51.854;4.534;2022-12-10T03:06:42;0.20;99.90
40253;DHT22;25972;51.854;4.534;2022-12-10T03:09:17;-0.10;99.90
40253;DHT22;25972;51.854;4.534;2022-12-10T03:11:48;0.00;99.90
40253;DHT22;25972;51.854;4.534;2022-12-10T03:14:30;0.40;99.90
40253;DHT22;25972;51.854;4.534;2022-12-10T03:16:59;0.00;99.90
40253;DHT22;25972;51.854;4.534;2022-12-10T03:19:34;0.10;99.90
40253;DHT22;25972;51.854;4.534;2022-12-10T03:22:03;0.10;99.90
40253;DHT22;25972;51.854;4.534;2022-12-10T03:24:33;0.10;99.90
40253;DHT22;25972;51.854;4.534;2022-12-10T03:27:03;0.40;99.90
40253;DHT22;25972;51.854;4.534;2022-12-10T03:29:38;0.20;99.90
40253;DHT22;25972;51.854;4.534;2022-12-10T03:32:06;0.20;99.90
40253;DHT22;25972;51.854;4.534;2022-12-10T03:34:33;0.20;99.90
40253;DHT22;25972;51.854;4.534;2022-12-10T03:37:01;0.10;99.90
40253;DHT22;25972;51.854;4.534;2022-12-10T03:39:27;0.40;99.90
40253;DHT22;25972;51.854;4.534;2022-12-10T03:41:57;0.30;99.90
40253;DHT22;25972;51.854;4.534;2022-12-10T03:44:35;0.40;99.90
40253;DHT22;25972;51.854;4.534;2022-12-10T03:47:03;0.40;99.90
40253;DHT22;25972;51.854;4.534;2022-12-10T03:49:44;0.40;99.90
40253;DHT22;25972;51.854;4.534;2022-12-10T03:52:17;0.20;99.90
40253;DHT22;25972;51.854;4.534;2022-12-10T03:54:46;0.10;99.90
40253;DHT22;25972;51.854;4.534;2022-12-10T03:57:13;0.00;99.90
40253;DHT22;25972;51.854;4.534;2022-12-10T03:59:39;0.10;99.90
40253;DHT22;25972;51.854;4.534;2022-12-10T04:02:06;0.10;99.90
40253;DHT22;25972;51.854;4.534;2022-12-10T04:04:35;0.40;99.90
40253;DHT22;25972;51.854;4.534;2022-12-10T04:07:04;0.20;99.90
40253;DHT22;25972;51.854;4.534;2022-12-10T04:09:30;0.10;99.90
40253;DHT22;25972;51.854;4.534;2022-12-10T04:11:57;0.10;99.90
40253;DHT22;25972;51.854;4.534;2022-12-10T04:14:24;0.30;99.90
40253;DHT22;25972;51.854;4.534;2022-12-10T04:17:13;0.20;99.90
40253;DHT22;25972;51.854;4.534;2022-12-10T04:19:39;0.40;99.90
40253;DHT22;25972;51.854;4.534;2022-12-10T04:22:09;0.20;99.90
40253;DHT22;25972;51.854;4.534;2022-12-10T04:25:00;0.40;99.90
40253;DHT22;25972;51.854;4.534;2022-12-10T04:27:45;0.40;99.90
40253;DHT22;25972;51.854;4.534;2022-12-10T04:30:11;0.50;99.90
40253;DHT22;25972;51.854;4.534;2022-12-10T04:32:40;0.40;99.90
40253;DHT22;25972;51.854;4.534;2022-12-10T04:35:07;0.50;99.90
40253;DHT22;25972;51.854;4.534;2022-12-10T04:37:34;0.30;99.90
40253;DHT22;25972;51.854;4.534;2022-12-10T04:40:04;0.50;99.90
40253;DHT22;25972;51.854;4.534;2022-12-10T04:42:33;0.50;99.90
40253;DHT22;25972;51.854;4.534;2022-12-10T04:44:59;0.20;99.90
40253;DHT22;25972;51.854;4.534;2022-12-10T04:47:25;0.20;99.90
40253;DHT22;25972;51.854;4.534;2022-12-10T04:49:51;0.50;99.90
40253;DHT22;25972;51.854;4.534;2022-12-10T04:52:18;0.20;99.90
40253;DHT22;25972;51.854;4.534;2022-12-10T04:54:45;0.20;99.90
40253;DHT22;25972;51.854;4.534;2022-12-10T04:57:11;0.40;99.90
40253;DHT22;25972;51.854;4.534;2022-12-10T04:59:38;0.20;99.90
40253;DHT22;25972;51.854;4.534;2022-12-10T05:02:05;0.30;99.90
40253;DHT22;25972;51.854;4.534;2022-12-10T05:04:31;0.20;99.90
40253;DHT22;25972;51.854;4.534;2022-12-10T05:06:57;0.40;99.90
40253;DHT22;25972;51.854;4.534;2022-12-10T05:09:25;0.40;99.90
40253;DHT22;25972;51.854;4.534;2022-12-10T05:11:51;0.20;99.90
40253;DHT22;25972;51.854;4.534;2022-12-10T05:14:17;0.20;99.90
40253;DHT22;25972;51.854;4.534;2022-12-10T05:16:43;0.20;99.90
40253;DHT22;25972;51.854;4.534;2022-12-10T05:19:12;0.50;99.90
40253;DHT22;25972;51.854;4.534;2022-12-10T05:21:51;0.50;99.90
40253;DHT22;25972;51.854;4.534;2022-12-10T05:24:36;0.50;99.90
40253;DHT22;25972;51.854;4.534;2022-12-10T05:27:04;0.60;99.90
40253;DHT22;25972;51.854;4.534;2022-12-10T05:29:33;0.50;99.90
40253;DHT22;25972;51.854;4.534;2022-12-10T05:31:59;0.50;99.90
40253;DHT22;25972;51.854;4.534;2022-12-10T05:34:26;0.30;99.90
40253;DHT22;25972;51.854;4.534;2022-12-10T05:36:56;0.20;99.90
40253;DHT22;25972;51.854;4.534;2022-12-10T05:39:22;0.30;99.90
40253;DHT22;25972;51.854;4.534;2022-12-10T05:41:48;0.20;99.90
40253;DHT22;25972;51.854;4.534;2022-12-10T05:44:14;0.50;99.90
40253;DHT22;25972;51.854;4.534;2022-12-10T05:46:41;0.20;99.90
40253;DHT22;25972;51.854;4.534;2022-12-10T05:49:07;0.30;99.90
40253;DHT22;25972;51.854;4.534;2022-12-10T05:51:37;0.20;99.90
40253;DHT22;25972;51.854;4.534;2022-12-10T05:54:05;0.20;99.90
40253;DHT22;25972;51.854;4.534;2022-12-10T05:56:31;0.30;99.90
40253;DHT22;25972;51.854;4.534;2022-12-10T05:59:09;0.60;99.90
40253;DHT22;25972;51.854;4.534;2022-12-10T06:01:38;0.60;99.90
40253;DHT22;25972;51.854;4.534;2022-12-10T06:04:05;0.40;99.90
40253;DHT22;25972;51.854;4.534;2022-12-10T06:06:34;0.40;99.90
40253;DHT22;25972;51.854;4.534;2022-12-10T06:09:05;0.30;99.90
40253;DHT22;25972;51.854;4.534;2022-12-10T06:11:35;0.60;99.90
40253;DHT22;25972;51.854;4.534;2022-12-10T06:14:01;0.30;99.90
40253;DHT22;25972;51.854;4.534;2022-12-10T06:16:30;0.40;99.90
40253;DHT22;25972;51.854;4.534;2022-12-10T06:19:00;0.40;99.90
40253;DHT22;25972;51.854;4.534;2022-12-10T06:21:33;0.40;99.90
40253;DHT22;25972;51.854;4.534;2022-12-10T06:24:03;0.40;99.90
40253;DHT22;25972;51.854;4.534;2022-12-10T06:26:32;0.50;99.90
40253;DHT22;25972;51.854;4.534;2022-12-10T06:29:01;0.30;99.90
40253;DHT22;25972;51.854;4.534;2022-12-10T06:31:30;0.40;99.90
40253;DHT22;25972;51.854;4.534;2022-12-10T06:33:56;0.60;99.90
40253;DHT22;25972;51.854;4.534;2022-12-10T06:36:25;0.40;99.90
40253;DHT22;25972;51.854;4.534;2022-12-10T06:39:03;0.50;99.90
40253;DHT22;25972;51.854;4.534;2022-12-10T06:41:29;0.50;99.90
40253;DHT22;25972;51.854;4.534;2022-12-10T06:44:01;0.60;99.90
40253;DHT22;25972;51.854;4.534;2022-12-10T06:46:30;0.40;99.90
40253;DHT22;25972;51.854;4.534;2022-12-10T06:48:56;0.60;99.90
40253;DHT22;25972;51.854;4.534;2022-12-10T06:51:22;0.50;99.90
40253;DHT22;25972;51.854;4.534;2022-12-10T06:53:49;0.60;99.90
40253;DHT22;25972;51.854;4.534;2022-12-10T06:56:19;0.40;99.90
40253;DHT22;25972;51.854;4.534;2022-12-10T06:58:48;0.50;99.90
40253;DHT22;25972;51.854;4.534;2022-12-10T07:01:23;0.40;99.90
40253;DHT22;25972;51.854;4.534;2022-12-10T07:03:54;0.50;99.90
40253;DHT22;25972;51.854;4.534;2022-12-10T07:06:22;0.50;99.90
40253;DHT22;25972;51.854;4.534;2022-12-10T07:08:49;0.40;99.90
40253;DHT22;25972;51.854;4.534;2022-12-10T07:11:19;0.30;99.90
40253;DHT22;25972;51.854;4.534;2022-12-10T07:13:45;0.30;99.90
40253;DHT22;25972;51.854;4.534;2022-12-10T07:16:20;0.30;99.90
40253;DHT22;25972;51.854;4.534;2022-12-10T07:18:50;0.50;99.90
40253;DHT22;25972;51.854;4.534;2022-12-10T07:23:48;0.30;99.90
40253;DHT22;25972;51.854;4.534;2022-12-10T07:26:17;0.60;99.90
40253;DHT22;25972;51.854;4.534;2022-12-10T07:28:43;0.40;99.90
40253;DHT22;25972;51.854;4.534;2022-12-10T07:31:09;0.50;99.90
40253;DHT22;25972;51.854;4.534;2022-12-10T07:33:36;0.60;99.90
40253;DHT22;25972;51.854;4.534;2022-12-10T07:36:07;0.30;99.90
40253;DHT22;25972;51.854;4.534;2022-12-10T07:38:37;0.60;99.90
40253;DHT22;25972;51.854;4.534;2022-12-10T07:41:09;0.60;99.90
40253;DHT22;25972;51.854;4.534;2022-12-10T07:43:37;0.50;99.90
40253;DHT22;25972;51.854;4.534;2022-12-10T07:46:12;0.60;99.90
40253;DHT22;25972;51.854;4.534;2022-12-10T07:48:39;0.40;99.90
40253;DHT22;25972;51.854;4.534;2022-12-10T07:51:05;0.30;99.90
40253;DHT22;25972;51.854;4.534;2022-12-10T07:53:35;0.40;99.90
40253;DHT22;25972;51.854;4.534;2022-12-10T07:56:02;0.40;99.90
40253;DHT22;25972;51.854;4.534;2022-12-10T07:58:28;0.50;99.90
40253;DHT22;25972;51.854;4.534;2022-12-10T08:00:54;0.60;99.90
40253;DHT22;25972;51.854;4.534;2022-12-10T08:03:21;0.20;99.90
40253;DHT22;25972;51.854;4.534;2022-12-10T08:05:47;0.20;99.90
40253;DHT22;25972;51.854;4.534;2022-12-10T08:08:13;0.50;99.90
40253;DHT22;25972;51.854;4.534;2022-12-10T08:10:39;0.30;99.90
40253;DHT22;25972;51.854;4.534;2022-12-10T08:13:07;0.20;99.90
40253;DHT22;25972;51.854;4.534;2022-12-10T08:15:33;0.00;99.90
40253;DHT22;25972;51.854;4.534;2022-12-10T08:17:59;0.10;99.90
40253;DHT22;25972;51.854;4.534;2022-12-10T08:20:25;0.20;99.90
40253;DHT22;25972;51.854;4.534;2022-12-10T08:22:51;-0.10;99.90
40253;DHT22;25972;51.854;4.534;2022-12-10T08:25:17;0.10;99.90
40253;DHT22;25972;51.854;4.534;2022-12-10T08:27:46;-0.10;99.90
40253;DHT22;25972;51.854;4.534;2022-12-10T08:30:13;-0.10;99.90
40253;DHT22;25972;51.854;4.534;2022-12-10T08:32:39;0.10;99.90
40253;DHT22;25972;51.854;4.534;2022-12-10T08:35:05;0.30;99.90
40253;DHT22;25972;51.854;4.534;2022-12-10T08:37:31;0.20;99.90
40253;DHT22;25972;51.854;4.534;2022-12-10T08:39:57;0.00;99.90
40253;DHT22;25972;51.854;4.534;2022-12-10T08:42:23;0.30;99.90
40253;DHT22;25972;51.854;4.534;2022-12-10T08:44:50;-0.10;99.90
40253;DHT22;25972;51.854;4.534;2022-12-10T08:47:16;0.10;99.90
40253;DHT22;25972;51.854;4.534;2022-12-10T08:49:42;0.30;99.90
40253;DHT22;25972;51.854;4.534;2022-12-10T08:52:08;0.10;99.90
40253;DHT22;25972;51.854;4.534;2022-12-10T08:54:34;0.30;99.90
40253;DHT22;25972;51.854;4.534;2022-12-10T08:57:00;0.20;99.90
40253;DHT22;25972;51.854;4.534;2022-12-10T08:59:27;-0.20;99.90
40253;DHT22;25972;51.854;4.534;2022-12-10T09:01:53;0.00;99.90
40253;DHT22;25972;51.854;4.534;2022-12-10T09:04:22;0.20;99.90
40253;DHT22;25972;51.854;4.534;2022-12-10T09:06:49;0.20;99.90
40253;DHT22;25972;51.854;4.534;2022-12-10T09:09:16;-0.10;99.90
40253;DHT22;25972;51.854;4.534;2022-12-10T09:11:43;-0.10;99.90
40253;DHT22;25972;51.854;4.534;2022-12-10T09:14:11;0.10;99.90
40253;DHT22;25972;51.854;4.534;2022-12-10T09:16:38;-0.10;99.90
40253;DHT22;25972;51.854;4.534;2022-12-10T09:19:05;0.20;99.90
40253;DHT22;25972;51.854;4.534;2022-12-10T09:21:32;0.20;99.90
40253;DHT22;25972;51.854;4.534;2022-12-10T09:23:58;0.00;99.90
40253;DHT22;25972;51.854;4.534;2022-12-10T09:26:24;-0.10;99.90
40253;DHT22;25972;51.854;4.534;2022-12-10T09:28:52;0.20;99.90
40253;DHT22;25972;51.854;4.534;2022-12-10T09:31:19;0.20;99.90
40253;DHT22;25972;51.854;4.534;2022-12-10T09:33:46;0.00;99.90
40253;DHT22;25972;51.854;4.534;2022-12-10T09:36:13;0.20;99.90
40253;DHT22;25972;51.854;4.534;2022-12-10T09:38:43;0.30;99.90
40253;DHT22;25972;51.854;4.534;2022-12-10T09:46:58;0.00;99.90
40253;DHT22;25972;51.854;4.534;2022-12-10T09:52:19;0.30;99.90
40253;DHT22;25972;51.854;4.534;2022-12-10T09:54:59;0.50;99.90
40253;DHT22;25972;51.854;4.534;2022-12-10T09:57:35;0.30;99.90
40253;DHT22;25972;51.854;4.534;2022-12-10T10:00:06;0.40;99.90
40253;DHT22;25972;51.854;4.534;2022-12-10T10:02:37;0.10;99.90
40253;DHT22;25972;51.854;4.534;2022-12-10T10:07:38;0.20;99.90
40253;DHT22;25972;51.854;4.534;2022-12-10T10:10:22;0.30;99.90
40253;DHT22;25972;51.854;4.534;2022-12-10T10:12:52;0.30;99.90
40253;DHT22;25972;51.854;4.534;2022-12-10T10:15:24;0.60;99.90
40253;DHT22;25972;51.854;4.534;2022-12-10T10:17:53;0.50;99.90
40253;DHT22;25972;51.854;4.534;2022-12-10T10:20:20;0.60;99.90
40253;DHT22;25972;51.854;4.534;2022-12-10T10:22:50;0.20;99.90
40253;DHT22;25972;51.854;4.534;2022-12-10T10:25:18;0.30;99.90
40253;DHT22;25972;51.854;4.534;2022-12-10T10:27:45;0.30;99.90
40253;DHT22;25972;51.854;4.534;2022-12-10T10:30:18;0.40;99.90
40253;DHT22;25972;51.854;4.534;2022-12-10T10:32:52;0.20;99.90
40253;DHT22;25972;51.854;4.534;2022-12-10T10:37:52;0.40;99.90
40253;DHT22;25972;51.854;4.534;2022-12-10T10:40:28;0.50;99.90
40253;DHT22;25972;51.854;4.534;2022-12-10T10:42:56;0.40;99.90
40253;DHT22;25972;51.854;4.534;2022-12-10T10:45:40;0.40;99.90
40253;DHT22;25972;51.854;4.534;2022-12-10T10:48:14;0.50;99.90
40253;DHT22;25972;51.854;4.534;2022-12-10T10:50:50;0.60;99.90
40253;DHT22;25972;51.854;4.534;2022-12-10T10:53:31;0.40;99.90
40253;DHT22;25972;51.854;4.534;2022-12-10T10:56:10;0.40;99.90
40253;DHT22;25972;51.854;4.534;2022-12-10T11:01:52;0.50;99.90
40253;DHT22;25972;51.854;4.534;2022-12-10T11:04:36;0.70;99.90
40253;DHT22;25972;51.854;4.534;2022-12-10T11:07:04;0.40;99.90
40253;DHT22;25972;51.854;4.534;2022-12-10T11:09:32;0.60;99.90
40253;DHT22;25972;51.854;4.534;2022-12-10T11:12:04;0.30;99.90
40253;DHT22;25972;51.854;4.534;2022-12-10T11:14:33;0.50;99.90
40253;DHT22;25972;51.854;4.534;2022-12-10T11:19:41;0.80;99.90
40253;DHT22;25972;51.854;4.534;2022-12-10T11:22:36;0.50;99.90
40253;DHT22;25972;51.854;4.534;2022-12-10T11:25:05;0.80;99.90
40253;DHT22;25972;51.854;4.534;2022-12-10T11:27:52;0.40;99.90
40253;DHT22;25972;51.854;4.534;2022-12-10T11:30:23;0.80;99.90
40253;DHT22;25972;51.854;4.534;2022-12-10T11:33:02;0.50;99.90
40253;DHT22;25972;51.854;4.534;2022-12-10T11:39:02;1.00;99.90
40253;DHT22;25972;51.854;4.534;2022-12-10T11:41:30;0.60;99.90
40253;DHT22;25972;51.854;4.534;2022-12-10T11:49:42;0.70;99.90
40253;DHT22;25972;51.854;4.534;2022-12-10T12:00:57;0.70;99.90
40253;DHT22;25972;51.854;4.534;2022-12-10T12:03:46;0.50;99.90
40253;DHT22;25972;51.854;4.534;2022-12-10T12:12:05;0.80;99.90
40253;DHT22;25972;51.854;4.534;2022-12-10T12:14:41;0.80;99.90
40253;DHT22;25972;51.854;4.534;2022-12-10T12:17:19;0.60;99.90
40253;DHT22;25972;51.854;4.534;2022-12-10T12:19:51;0.70;99.90
40253;DHT22;25972;51.854;4.534;2022-12-10T12:22:26;0.90;99.90
40253;DHT22;25972;51.854;4.534;2022-12-10T12:24:59;0.70;99.90
40253;DHT22;25972;51.854;4.534;2022-12-10T12:27:35;1.00;99.90
40253;DHT22;25972;51.854;4.534;2022-12-10T12:30:16;0.70;99.90
40253;DHT22;25972;51.854;4.534;2022-12-10T12:33:15;0.80;99.90
40253;DHT22;25972;51.854;4.534;2022-12-10T12:35:52;1.00;99.90
40253;DHT22;25972;51.854;4.534;2022-12-10T12:43:51;1.00;99.90
40253;DHT22;25972;51.854;4.534;2022-12-10T12:46:44;1.00;99.90
40253;DHT22;25972;51.854;4.534;2022-12-10T12:52:01;1.10;99.90
40253;DHT22;25972;51.854;4.534;2022-12-10T12:54:28;1.00;99.90
40253;DHT22;25972;51.854;4.534;2022-12-10T12:59:56;1.00;99.90
40253;DHT22;25972;51.854;4.534;2022-12-10T13:05:18;1.20;99.90
40253;DHT22;25972;51.854;4.534;2022-12-10T13:08:21;1.20;99.90
40253;DHT22;25972;51.854;4.534;2022-12-10T13:13:35;0.80;99.90
40253;DHT22;25972;51.854;4.534;2022-12-10T13:22:04;1.30;99.90
40253;DHT22;25972;51.854;4.534;2022-12-10T13:24:45;1.10;99.90
40253;DHT22;25972;51.854;4.534;2022-12-10T13:37:35;1.40;99.90
40253;DHT22;25972;51.854;4.534;2022-12-10T13:42:40;1.00;99.90
40253;DHT22;25972;51.854;4.534;2022-12-10T13:45:33;0.90;99.90
40253;DHT22;25972;51.854;4.534;2022-12-10T13:56:18;0.90;99.90
40253;DHT22;25972;51.854;4.534;2022-12-10T14:07:19;1.10;99.90
40253;DHT22;25972;51.854;4.534;2022-12-10T14:09:49;1.20;99.90
40253;DHT22;25972;51.854;4.534;2022-12-10T14:15:07;1.70;99.90
40253;DHT22;25972;51.854;4.534;2022-12-10T14:17:38;1.30;99.90
40253;DHT22;25972;51.854;4.534;2022-12-10T14:20:07;1.60;99.90
40253;DHT22;25972;51.854;4.534;2022-12-10T14:22:37;1.30;99.90
40253;DHT22;25972;51.854;4.534;2022-12-10T14:25:19;1.80;99.90
40253;DHT22;25972;51.854;4.534;2022-12-10T14:27:50;1.20;99.90
40253;DHT22;25972;51.854;4.534;2022-12-10T14:30:26;1.20;99.90
40253;DHT22;25972;51.854;4.534;2022-12-10T14:32:54;1.50;99.90
40253;DHT22;25972;51.854;4.534;2022-12-10T14:35:27;1.30;99.90
40253;DHT22;25972;51.854;4.534;2022-12-10T14:37:56;1.20;99.90
40253;DHT22;25972;51.854;4.534;2022-12-10T14:40:29;1.30;99.90
40253;DHT22;25972;51.854;4.534;2022-12-10T14:43:03;1.80;99.90
40253;DHT22;25972;51.854;4.534;2022-12-10T14:45:44;1.60;99.90
40253;DHT22;25972;51.854;4.534;2022-12-10T14:48:14;1.80;99.90
40253;DHT22;25972;51.854;4.534;2022-12-10T14:50:44;1.30;99.90
40253;DHT22;25972;51.854;4.534;2022-12-10T14:53:24;1.30;99.90
40253;DHT22;25972;51.854;4.534;2022-12-10T14:55:53;1.80;99.90
40253;DHT22;25972;51.854;4.534;2022-12-10T14:58:31;1.80;99.90
40253;DHT22;25972;51.854;4.534;2022-12-10T15:00:59;1.60;99.90
40253;DHT22;25972;51.854;4.534;2022-12-10T15:03:45;1.90;99.90
40253;DHT22;25972;51.854;4.534;2022-12-10T15:06:17;1.30;99.90
40253;DHT22;25972;51.854;4.534;2022-12-10T15:08:45;1.30;99.90
40253;DHT22;25972;51.854;4.534;2022-12-10T15:11:17;1.70;99.90
40253;DHT22;25972;51.854;4.534;2022-12-10T15:13:52;1.40;99.90
40253;DHT22;25972;51.854;4.534;2022-12-10T15:16:31;1.60;99.90
40253;DHT22;25972;51.854;4.534;2022-12-10T15:19:08;1.80;99.90
40253;DHT22;25972;51.854;4.534;2022-12-10T15:21:41;1.90;99.90
40253;DHT22;25972;51.854;4.534;2022-12-10T15:24:18;1.70;99.90
40253;DHT22;25972;51.854;4.534;2022-12-10T15:26:46;1.90;99.90
40253;DHT22;25972;51.854;4.534;2022-12-10T15:32:15;1.90;99.90
40253;DHT22;25972;51.854;4.534;2022-12-10T15:34:53;1.50;99.90
40253;DHT22;25972;51.854;4.534;2022-12-10T15:37:25;1.80;99.90
40253;DHT22;25972;51.854;4.534;2022-12-10T15:39:57;1.70;99.90
40253;DHT22;25972;51.854;4.534;2022-12-10T15:42:39;1.80;99.90
40253;DHT22;25972;51.854;4.534;2022-12-10T15:47:45;1.80;99.90
40253;DHT22;25972;51.854;4.534;2022-12-10T15:50:11;1.40;99.90
40253;DHT22;25972;51.854;4.534;2022-12-10T15:52:38;1.90;99.90
40253;DHT22;25972;51.854;4.534;2022-12-10T15:55:04;1.40;99.90
40253;DHT22;25972;51.854;4.534;2022-12-10T15:57:36;1.80;99.90
40253;DHT22;25972;51.854;4.534;2022-12-10T16:00:08;2.00;99.90
40253;DHT22;25972;51.854;4.534;2022-12-10T16:03:01;1.50;99.90
40253;DHT22;25972;51.854;4.534;2022-12-10T16:05:35;1.50;99.90
40253;DHT22;25972;51.854;4.534;2022-12-10T16:08:17;1.90;99.90
40253;DHT22;25972;51.854;4.534;2022-12-10T16:10:45;1.90;99.90
40253;DHT22;25972;51.854;4.534;2022-12-10T16:13:19;2.00;99.90
40253;DHT22;25972;51.854;4.534;2022-12-10T16:15:55;2.20;99.90
40253;DHT22;25972;51.854;4.534;2022-12-10T16:18:23;1.60;99.90
40253;DHT22;25972;51.854;4.534;2022-12-10T16:20:49;1.90;99.90
40253;DHT22;25972;51.854;4.534;2022-12-10T16:23:15;2.20;99.90
40253;DHT22;25972;51.854;4.534;2022-12-10T16:25:42;1.70;99.90
40253;DHT22;25972;51.854;4.534;2022-12-10T16:28:28;1.80;99.90
40253;DHT22;25972;51.854;4.534;2022-12-10T16:30:56;1.70;99.90
40253;DHT22;25972;51.854;4.534;2022-12-10T16:33:23;2.20;99.90
40253;DHT22;25972;51.854;4.534;2022-12-10T16:35:51;2.20;99.90
40253;DHT22;25972;51.854;4.534;2022-12-10T16:38:18;1.70;99.90
40253;DHT22;25972;51.854;4.534;2022-12-10T16:40:45;1.90;99.90
40253;DHT22;25972;51.854;4.534;2022-12-10T16:43:16;1.70;99.90
40253;DHT22;25972;51.854;4.534;2022-12-10T16:45:43;1.60;99.90
40253;DHT22;25972;51.854;4.534;2022-12-10T16:48:09;2.10;99.90
40253;DHT22;25972;51.854;4.534;2022-12-10T16:50:35;1.80;99.90
40253;DHT22;25972;51.854;4.534;2022-12-10T16:55:40;1.70;99.90
40253;DHT22;25972;51.854;4.534;2022-12-10T16:58:09;1.80;99.90
40253;DHT22;25972;51.854;4.534;2022-12-10T17:00:35;1.70;99.90
40253;DHT22;25972;51.854;4.534;2022-12-10T17:03:01;2.20;99.90
40253;DHT22;25972;51.854;4.534;2022-12-10T17:05:37;2.20;99.90
40253;DHT22;25972;51.854;4.534;2022-12-10T17:08:04;1.80;99.90
40253;DHT22;25972;51.854;4.534;2022-12-10T17:10:30;2.20;99.90
40253;DHT22;25972;51.854;4.534;2022-12-10T17:13:15;2.20;99.90
40253;DHT22;25972;51.854;4.534;2022-12-10T17:15:42;2.00;99.90
40253;DHT22;25972;51.854;4.534;2022-12-10T17:18:13;2.40;99.90
40253;DHT22;25972;51.854;4.534;2022-12-10T17:20:39;2.40;99.90
40253;DHT22;25972;51.854;4.534;2022-12-10T17:23:05;2.40;99.90
40253;DHT22;25972;51.854;4.534;2022-12-10T17:25:31;2.00;99.90
40253;DHT22;25972;51.854;4.534;2022-12-10T17:27:57;2.10;99.90
40253;DHT22;25972;51.854;4.534;2022-12-10T17:30:23;2.40;99.90
40253;DHT22;25972;51.854;4.534;2022-12-10T17:32:49;2.30;99.90
40253;DHT22;25972;51.854;4.534;2022-12-10T17:35:15;2.10;99.90
40253;DHT22;25972;51.854;4.534;2022-12-10T17:37:41;1.90;99.90
40253;DHT22;25972;51.854;4.534;2022-12-10T17:40:16;1.90;99.90
40253;DHT22;25972;51.854;4.534;2022-12-10T17:42:43;2.30;99.90
40253;DHT22;25972;51.854;4.534;2022-12-10T17:45:13;2.50;99.90
40253;DHT22;25972;51.854;4.534;2022-12-10T17:47:39;2.40;99.90
40253;DHT22;25972;51.854;4.534;2022-12-10T17:50:27;2.30;99.90
40253;DHT22;25972;51.854;4.534;2022-12-10T17:52:55;2.20;99.90
40253;DHT22;25972;51.854;4.534;2022-12-10T17:55:21;1.90;99.90
40253;DHT22;25972;51.854;4.534;2022-12-10T17:57:46;2.20;99.90
40253;DHT22;25972;51.854;4.534;2022-12-10T18:00:21;2.30;99.90
40253;DHT22;25972;51.854;4.534;2022-12-10T18:02:47;2.00;99.90
40253;DHT22;25972;51.854;4.534;2022-12-10T18:05:14;2.00;99.90
40253;DHT22;25972;51.854;4.534;2022-12-10T18:07:40;2.40;99.90
40253;DHT22;25972;51.854;4.534;2022-12-10T18:10:14;2.30;99.90
40253;DHT22;25972;51.854;4.534;2022-12-10T18:12:40;2.00;99.90
40253;DHT22;25972;51.854;4.534;2022-12-10T18:15:06;1.90;99.90